Time;durP1;ratioP1;P1;durP2;ratioP2;P2;SDS_P1;SDS_P2;PMS_P1;PMS_P2;Temp;Humidity;BMP_temperature;BMP_pressure;BME280_temperature;BME280_humidity;BME280_pressure;Samples;Min_cycle;Max_cycle;Signal;HPM_P1;HPM_P2
2022/07/31 00:00:04;;;;;;;0.00;0.00;;;;;;;17.96;87.60;101671.41;4978253;28;20145;-66
2022/07/31 00:02:29;;;;;;;0.00;0.00;;;;;;;17.93;87.59;101677.97;4978126;28;20053;-66
2022/07/31 00:04:55;;;;;;;0.00;0.00;;;;;;;17.87;88.03;101677.72;4978156;28;20120;-66
2022/07/31 00:07:20;;;;;;;0.00;0.00;;;;;;;17.87;88.16;101670.44;4978319;28;20027;-66
2022/07/31 00:09:45;;;;;;;0.00;0.00;;;;;;;17.86;88.48;101673.28;4980646;28;20031;-66
2022/07/31 00:12:10;;;;;;;0.00;0.00;;;;;;;17.84;88.96;101671.56;4970527;28;20502;-67
2022/07/31 00:14:36;;;;;;;0.00;0.00;;;;;;;17.86;89.30;101676.88;4978028;28;20475;-66
2022/07/31 00:17:01;;;;;;;0.00;0.00;;;;;;;17.91;88.10;101674.53;4980187;28;20049;-66
2022/07/31 00:19:26;;;;;;;0.00;0.00;;;;;;;17.99;88.26;101673.84;4977622;28;20026;-66
2022/07/31 00:21:52;;;;;;;0.00;0.00;;;;;;;18.03;88.33;101663.53;4974176;28;20033;-66
2022/07/31 00:24:17;;;;;;;0.00;0.00;;;;;;;18.05;89.04;101672.41;4972342;28;20038;-66
2022/07/31 00:26:42;;;;;;;0.00;0.00;;;;;;;18.14;87.15;101675.06;4977418;28;20038;-66
2022/07/31 00:29:09;;;;;;;0.08;0.08;;;;;;;18.25;85.46;101684.91;4978344;28;20965;-66
2022/07/31 00:31:35;;;;;;;0.00;0.00;;;;;;;18.31;85.00;101679.88;4978827;28;20054;-66
2022/07/31 00:34:00;;;;;;;0.00;0.00;;;;;;;18.33;84.64;101667.00;4977235;28;20161;-66
2022/07/31 00:36:25;;;;;;;0.03;0.03;;;;;;;18.47;84.00;101676.50;4979295;28;20034;-66
2022/07/31 00:38:51;;;;;;;0.00;0.00;;;;;;;18.44;83.65;101667.66;4976040;28;20037;-66
2022/07/31 00:41:16;;;;;;;0.00;0.00;;;;;;;18.53;84.33;101682.19;4976146;28;20034;-66
2022/07/31 00:43:41;;;;;;;0.00;0.00;;;;;;;18.53;83.80;101675.91;4978830;28;20026;-66
2022/07/31 00:46:07;;;;;;;0.00;0.00;;;;;;;18.49;83.67;101656.31;4979566;28;20026;-66
2022/07/31 00:48:32;;;;;;;0.00;0.00;;;;;;;18.45;84.61;101649.44;4979936;28;20030;-66
2022/07/31 00:50:58;;;;;;;0.00;0.00;;;;;;;18.50;85.14;101668.88;4970952;28;20173;-66
2022/07/31 00:53:23;;;;;;;0.05;0.00;;;;;;;18.50;84.75;101676.22;4975142;28;20121;-66
2022/07/31 00:55:48;;;;;;;0.00;0.00;;;;;;;18.44;84.92;101669.50;4976212;28;20065;-66
2022/07/31 00:58:14;;;;;;;0.00;0.00;;;;;;;18.40;85.30;101674.38;4974993;28;20444;-66
2022/07/31 01:00:39;;;;;;;0.00;0.00;;;;;;;18.36;85.45;101672.13;4978550;28;20053;-66
2022/07/31 01:03:04;;;;;;;0.00;0.00;;;;;;;18.29;87.03;101663.69;4976887;28;20493;-66
2022/07/31 01:05:29;;;;;;;0.00;0.00;;;;;;;18.19;87.47;101661.03;4977765;28;20038;-66
2022/07/31 01:07:55;;;;;;;0.00;0.00;;;;;;;18.04;88.42;101652.50;4972999;28;20061;-66
2022/07/31 01:10:42;;;;;;;0.00;0.00;;;;;;;17.88;89.80;101647.66;4975730;28;20156;-66
2022/07/31 01:13:13;;;;;;;0.00;0.00;;;;;;;17.76;89.82;101644.28;4974287;28;20499;-66
2022/07/31 01:15:39;;;;;;;0.00;0.00;;;;;;;17.70;90.73;101642.16;4977813;28;20085;-66
2022/07/31 01:18:05;;;;;;;0.00;0.00;;;;;;;17.63;91.28;101643.75;4979146;28;20118;-66
2022/07/31 01:20:32;;;;;;;0.00;0.00;;;;;;;17.55;91.83;101641.78;4975899;28;20038;-66
2022/07/31 01:23:17;;;;;;;0.00;0.00;;;;;;;17.42;92.43;101639.38;4975263;28;20038;-66
2022/07/31 01:25:58;;;;;;;0.00;0.00;;;;;;;17.40;93.19;101638.66;4983403;28;20371;-66
2022/07/31 01:28:49;;;;;;;0.00;0.00;;;;;;;17.39;93.29;101632.34;4983102;28;20053;-66
2022/07/31 01:31:21;;;;;;;0.00;0.00;;;;;;;17.40;93.66;101630.50;4980194;28;20116;-66
2022/07/31 01:33:52;;;;;;;0.00;0.00;;;;;;;17.30;94.23;101625.09;4992895;28;20502;-66
2022/07/31 01:36:24;;;;;;;0.00;0.00;;;;;;;17.21;94.94;101618.69;4971765;28;20220;-66
2022/07/31 01:38:51;;;;;;;0.10;0.10;;;;;;;17.18;96.06;101621.69;4983142;28;20030;-66
2022/07/31 01:41:20;;;;;;;0.00;0.00;;;;;;;17.09;95.79;101607.09;4976785;28;20516;-66
2022/07/31 01:43:47;;;;;;;0.00;0.00;;;;;;;17.18;94.90;101613.53;4978134;28;20112;-66
2022/07/31 01:46:14;;;;;;;0.00;0.00;;;;;;;17.17;94.88;101617.25;4980578;28;20038;-66
2022/07/31 01:48:40;;;;;;;0.00;0.00;;;;;;;17.04;95.29;101590.44;4984766;28;20029;-66
2022/07/31 01:51:07;;;;;;;0.00;0.00;;;;;;;17.08;95.13;101589.09;4981176;28;20135;-66
2022/07/31 01:53:35;;;;;;;0.00;0.00;;;;;;;17.17;95.45;101609.13;4977819;28;20100;-66
2022/07/31 01:56:01;;;;;;;0.00;0.00;;;;;;;17.13;95.31;101613.13;4979416;28;20474;-66
2022/07/31 01:58:27;;;;;;;0.00;0.00;;;;;;;17.09;95.27;101609.81;4977097;28;20065;-66
2022/07/31 02:00:54;;;;;;;0.00;0.00;;;;;;;17.10;94.87;101607.97;4974294;28;20042;-66
2022/07/31 02:03:20;;;;;;;0.00;0.00;;;;;;;17.15;94.48;101610.25;4978153;28;20031;-66
2022/07/31 02:05:46;;;;;;;0.00;0.00;;;;;;;17.09;94.72;101603.53;4977096;28;20030;-66
2022/07/31 02:08:13;;;;;;;0.00;0.00;;;;;;;17.20;94.53;101616.97;4975365;28;20035;-66
2022/07/31 02:10:39;;;;;;;0.00;0.00;;;;;;;17.16;93.16;101601.97;4986345;28;20510;-66
2022/07/31 02:13:05;;;;;;;0.00;0.00;;;;;;;17.42;92.16;101633.06;4977175;28;20023;-66
2022/07/31 02:15:31;;;;;;;0.00;0.00;;;;;;;17.53;91.66;101624.78;4975293;28;20037;-66
2022/07/31 02:17:59;;;;;;;0.00;0.00;;;;;;;17.63;91.02;101630.19;4976965;28;20509;-66
2022/07/31 02:20:25;;;;;;;0.00;0.00;;;;;;;17.59;91.52;101629.63;4975079;28;20046;-66
2022/07/31 02:22:51;;;;;;;0.00;0.00;;;;;;;17.47;92.02;101615.38;4973228;28;20022;-66
2022/07/31 02:25:16;;;;;;;0.00;0.00;;;;;;;17.58;91.44;101627.03;4975041;28;20387;-66
2022/07/31 02:27:42;;;;;;;0.00;0.00;;;;;;;17.54;91.78;101624.63;4974752;28;20141;-66
2022/07/31 02:30:08;;;;;;;0.00;0.00;;;;;;;17.56;91.70;101620.91;4976004;28;20149;-66
2022/07/31 02:32:34;;;;;;;0.00;0.00;;;;;;;17.57;92.33;101622.59;4974926;28;20038;-66
2022/07/31 02:35:01;;;;;;;0.00;0.00;;;;;;;17.54;92.88;101621.06;4977638;28;20030;-66
2022/07/31 02:37:28;;;;;;;0.00;0.00;;;;;;;17.53;92.70;101616.63;4976897;28;20407;-66
2022/07/31 02:39:54;;;;;;;0.00;0.00;;;;;;;17.47;93.05;101609.06;4983667;28;20378;-66
2022/07/31 02:42:20;;;;;;;0.00;0.00;;;;;;;17.46;93.47;101612.78;4980923;28;20045;-66
2022/07/31 02:44:47;;;;;;;0.00;0.00;;;;;;;17.41;94.10;101613.22;4978504;28;20019;-66
2022/07/31 02:47:12;;;;;;;0.00;0.00;;;;;;;17.36;94.04;101615.50;4975993;28;20038;-66
2022/07/31 02:49:38;;;;;;;0.00;0.00;;;;;;;17.32;95.10;101627.66;4977840;28;20038;-66
2022/07/31 02:52:04;;;;;;;0.00;0.00;;;;;;;17.31;95.86;101628.66;4975058;28;20034;-66
2022/07/31 02:54:30;;;;;;;0.00;0.00;;;;;;;17.28;95.63;101626.22;4975032;28;20120;-66
2022/07/31 02:56:56;;;;;;;0.00;0.00;;;;;;;17.25;95.72;101624.66;4975341;28;20106;-66
2022/07/31 02:59:22;;;;;;;0.00;0.00;;;;;;;17.10;96.46;101618.81;4974840;28;20110;-66
2022/07/31 03:01:48;;;;;;;0.00;0.00;;;;;;;17.13;96.73;101623.97;4975456;28;20060;-66
2022/07/31 03:04:13;;;;;;;0.00;0.00;;;;;;;17.11;96.41;101612.41;4979829;28;20041;-66
2022/07/31 03:06:38;;;;;;;0.00;0.00;;;;;;;17.09;95.91;101615.25;4975353;28;20057;-66
2022/07/31 03:09:04;;;;;;;0.00;0.00;;;;;;;17.08;95.88;101612.69;4975943;28;20056;-66
2022/07/31 03:11:29;;;;;;;0.00;0.00;;;;;;;17.00;95.22;101602.56;4975017;28;20069;-66
2022/07/31 03:13:57;;;;;;;0.00;0.00;;;;;;;17.13;95.19;101617.66;4979094;28;20040;-66
2022/07/31 03:16:22;;;;;;;0.00;0.00;;;;;;;16.93;95.49;101599.53;4976668;28;20082;-66
2022/07/31 03:18:48;;;;;;;0.00;0.00;;;;;;;17.09;95.52;101606.25;4972288;28;20035;-66
2022/07/31 03:21:13;;;;;;;0.00;0.00;;;;;;;17.12;95.21;101603.25;4976549;28;20062;-66
2022/07/31 03:23:39;;;;;;;0.00;0.00;;;;;;;17.17;94.71;101602.81;4975870;28;20355;-66
2022/07/31 03:26:04;;;;;;;0.00;0.00;;;;;;;17.14;94.63;101592.25;4974256;28;20085;-66
2022/07/31 03:28:30;;;;;;;0.00;0.00;;;;;;;17.09;95.27;101590.81;4974265;28;20398;-66
2022/07/31 03:30:55;;;;;;;0.00;0.00;;;;;;;17.18;94.57;101591.84;4972347;28;20034;-66
2022/07/31 03:33:21;;;;;;;0.00;0.00;;;;;;;17.12;93.79;101572.53;4976228;28;20038;-66
2022/07/31 03:35:47;;;;;;;0.00;0.00;;;;;;;17.33;92.94;101600.38;4975167;28;20457;-66
2022/07/31 03:38:12;;;;;;;0.00;0.00;;;;;;;17.37;91.88;101598.22;4978414;28;20034;-66
2022/07/31 03:40:38;;;;;;;0.00;0.00;;;;;;;17.37;92.86;101592.81;4973445;28;20110;-66
2022/07/31 03:43:03;;;;;;;0.00;0.00;;;;;;;17.33;92.80;101594.09;4981867;28;20040;-66
2022/07/31 03:45:29;;;;;;;0.00;0.00;;;;;;;17.33;93.35;101592.25;4971048;28;20411;-66
2022/07/31 03:47:55;;;;;;;0.00;0.00;;;;;;;17.35;93.09;101594.81;4977734;28;20026;-66
2022/07/31 03:50:21;;;;;;;0.00;0.00;;;;;;;17.29;92.39;101590.81;4978611;28;20034;-66
2022/07/31 03:52:46;;;;;;;0.08;0.08;;;;;;;17.30;92.39;101600.69;4977767;28;20478;-66
2022/07/31 03:55:12;;;;;;;0.00;0.00;;;;;;;17.28;93.11;101597.25;4976193;28;20026;-66
2022/07/31 03:57:38;;;;;;;0.00;0.00;;;;;;;17.25;93.10;101592.09;4974922;28;20486;-66
2022/07/31 04:00:05;;;;;;;0.00;0.00;;;;;;;17.31;92.92;101591.53;4976734;28;20057;-66
2022/07/31 04:02:30;;;;;;;0.00;0.00;;;;;;;17.17;93.23;101559.41;4973527;28;20639;-66
2022/07/31 04:04:56;;;;;;;0.00;0.00;;;;;;;17.24;93.11;101571.41;4974774;28;20034;-66
2022/07/31 04:07:22;;;;;;;0.03;0.03;;;;;;;17.35;92.81;101590.22;4972882;28;20550;-66
2022/07/31 04:09:47;;;;;;;0.00;0.00;;;;;;;17.33;93.84;101594.97;4969826;28;20030;-66
2022/07/31 04:12:12;;;;;;;0.00;0.00;;;;;;;17.29;93.51;101592.66;4971623;28;20061;-66
2022/07/31 04:14:37;;;;;;;0.00;0.00;;;;;;;17.30;93.48;101595.25;4972228;28;20461;-65
2022/07/31 04:17:03;;;;;;;0.00;0.00;;;;;;;17.36;92.94;101599.22;4979294;28;20042;-66
2022/07/31 04:19:29;;;;;;;0.00;0.00;;;;;;;17.31;93.82;101598.81;4976618;28;20031;-66
2022/07/31 04:21:58;;;;;;;0.00;0.00;;;;;;;17.33;93.56;101592.25;4971258;28;20121;-66
2022/07/31 04:24:24;;;;;;;0.10;0.10;;;;;;;17.32;93.09;101605.94;4969448;28;20466;-66
2022/07/31 04:26:50;;;;;;;0.00;0.00;;;;;;;17.20;92.80;101600.69;4973357;28;20089;-66
2022/07/31 04:29:16;;;;;;;0.00;0.00;;;;;;;17.13;92.33;101606.81;4973469;28;20030;-66
2022/07/31 04:31:41;;;;;;;0.00;0.00;;;;;;;17.15;91.92;101611.13;4970821;28;20045;-66
2022/07/31 04:34:07;;;;;;;0.10;0.10;;;;;;;17.12;91.09;101605.09;4976571;28;20391;-66
2022/07/31 04:36:32;;;;;;;0.05;0.05;;;;;;;17.08;91.17;101608.09;4979268;28;20058;-65
2022/07/31 04:38:58;;;;;;;0.00;0.00;;;;;;;17.13;91.00;101613.13;4974389;28;20398;-66
2022/07/31 04:41:24;;;;;;;0.00;0.00;;;;;;;17.20;90.75;101602.53;4973543;28;20507;-66
2022/07/31 04:43:49;;;;;;;0.00;0.00;;;;;;;17.19;90.92;101588.13;4978783;28;20479;-66
2022/07/31 04:46:15;;;;;;;0.00;0.00;;;;;;;17.27;90.38;101600.09;4980237;28;20105;-66
2022/07/31 04:48:40;;;;;;;0.00;0.00;;;;;;;17.22;90.92;101609.50;4981010;28;20054;-65
2022/07/31 04:51:05;;;;;;;0.00;0.00;;;;;;;17.18;91.17;101608.13;4982561;28;20050;-65
2022/07/31 04:53:31;;;;;;;0.00;0.00;;;;;;;17.21;91.42;101612.38;4985132;28;20026;-66
2022/07/31 04:58:40;;;;;;;;;;;;;;;17.19;91.58;101615.25;4979966;28;20065;-65
2022/07/31 05:01:05;;;;;;;0.00;0.00;;;;;;;17.23;92.04;101607.69;4971041;28;20667;-65
2022/07/31 05:03:30;;;;;;;0.00;0.00;;;;;;;17.21;92.83;101604.25;4978019;28;20685;-65
2022/07/31 05:05:56;;;;;;;0.00;0.00;;;;;;;17.18;93.84;101607.25;4977612;28;20022;-65
2022/07/31 05:08:22;;;;;;;0.03;0.03;;;;;;;17.14;93.63;101595.84;4980387;28;20030;-65
2022/07/31 05:13:32;;;;;;;0.10;0.10;;;;;;;17.16;93.52;101592.97;4980493;28;20044;-66
2022/07/31 05:15:57;;;;;;;0.00;0.00;;;;;;;17.22;94.57;101595.94;4978143;28;20790;-65
2022/07/31 05:18:22;;;;;;;0.00;0.00;;;;;;;17.26;93.29;101595.66;4977872;28;20073;-65
2022/07/31 05:20:48;;;;;;;0.00;0.00;;;;;;;17.34;91.87;101595.81;4976203;28;20050;-65
2022/07/31 05:23:14;;;;;;;0.00;0.00;;;;;;;17.37;91.53;101601.78;4977709;28;20038;-65
2022/07/31 05:25:40;;;;;;;0.00;0.00;;;;;;;17.30;91.13;101589.81;4977409;28;20026;-66
2022/07/31 05:28:05;;;;;;;0.00;0.00;;;;;;;17.44;89.95;101601.22;4978925;28;20872;-66
2022/07/31 05:30:30;;;;;;;0.05;0.05;;;;;;;17.38;90.61;101597.22;4979134;28;20121;-66
2022/07/31 05:32:57;;;;;;;0.00;0.00;;;;;;;17.27;91.32;101594.66;4973995;28;20033;-66
2022/07/31 05:35:22;;;;;;;0.00;0.00;;;;;;;17.44;91.19;101588.50;4979279;28;20027;-67
2022/07/31 05:37:47;;;;;;;0.00;0.00;;;;;;;17.24;92.57;101579.53;4982187;28;20037;-67
2022/07/31 05:40:13;;;;;;;0.00;0.00;;;;;;;17.08;94.35;101575.53;4978711;28;20475;-67
2022/07/31 05:42:38;;;;;;;0.00;0.00;;;;;;;17.02;95.45;101575.28;4977991;28;20110;-67
2022/07/31 05:45:03;;;;;;;0.00;0.00;;;;;;;16.78;96.15;101553.00;4982117;28;20022;-67
2022/07/31 05:47:29;;;;;;;0.10;0.00;;;;;;;17.03;96.43;101582.41;4977001;28;20064;-66
2022/07/31 05:49:54;;;;;;;0.00;0.00;;;;;;;16.97;96.84;101588.41;4978941;28;20360;-66
2022/07/31 05:52:19;;;;;;;0.00;0.00;;;;;;;17.01;96.69;101585.28;4979355;28;20079;-66
2022/07/31 05:54:45;;;;;;;0.10;0.10;;;;;;;17.04;98.12;101589.56;4981328;28;20057;-65
2022/07/31 05:57:11;;;;;;;0.00;0.00;;;;;;;17.04;98.56;101595.84;4976194;28;20481;-66
2022/07/31 05:59:36;;;;;;;0.00;0.00;;;;;;;17.11;98.93;101597.97;4974592;28;20046;-66
2022/07/31 06:02:02;;;;;;;0.00;0.00;;;;;;;17.22;97.59;101600.53;4977279;28;20378;-66
2022/07/31 06:04:27;;;;;;;0.00;0.00;;;;;;;17.19;97.71;101598.97;4981480;28;20026;-66
2022/07/31 06:06:52;;;;;;;0.00;0.00;;;;;;;17.14;98.96;101595.84;4977002;28;20030;-66
2022/07/31 06:09:17;;;;;;;0.10;0.10;;;;;;;17.24;99.76;101601.25;4978681;28;20125;-66
2022/07/31 06:11:43;;;;;;;0.08;0.08;;;;;;;17.23;98.81;101594.94;4981160;28;20034;-66
2022/07/31 06:14:08;;;;;;;0.00;0.00;;;;;;;17.36;97.38;101601.94;4978145;28;20073;-66
2022/07/31 06:16:33;;;;;;;0.03;0.00;;;;;;;17.38;98.63;101608.09;4981565;28;20062;-66
2022/07/31 06:18:59;;;;;;;0.00;0.00;;;;;;;17.36;98.40;101618.22;4972405;28;22003;-66
2022/07/31 06:21:24;;;;;;;0.00;0.00;;;;;;;17.43;98.02;101618.50;4975056;28;20034;-66
2022/07/31 06:23:49;;;;;;;0.00;0.00;;;;;;;17.49;97.78;101616.03;4973533;28;20018;-66
2022/07/31 06:26:15;;;;;;;0.10;0.10;;;;;;;17.48;97.88;101608.91;4978696;28;20493;-66
2022/07/31 06:28:40;;;;;;;0.00;0.00;;;;;;;17.52;97.88;101604.91;4975774;28;20141;-66
2022/07/31 06:31:05;;;;;;;0.05;0.05;;;;;;;17.61;98.23;101603.16;4972906;28;21239;-66
2022/07/31 06:33:31;;;;;;;0.10;0.10;;;;;;;17.59;97.70;101607.91;4978808;28;20061;-66
2022/07/31 06:35:56;;;;;;;0.00;0.00;;;;;;;17.61;98.22;101608.59;4976084;28;20419;-66
2022/07/31 06:38:23;;;;;;;0.00;0.00;;;;;;;17.64;99.09;101612.88;4974047;28;20053;-65
2022/07/31 06:40:48;;;;;;;0.00;0.00;;;;;;;17.63;98.19;101612.00;4977045;28;20030;-65
2022/07/31 06:43:14;;;;;;;0.13;0.00;;;;;;;17.72;97.48;101604.00;4978719;28;20038;-66
2022/07/31 06:45:41;;;;;;;0.00;0.00;;;;;;;17.80;97.34;101601.41;4979476;28;20061;-66
2022/07/31 06:48:11;;;;;;;0.00;0.00;;;;;;;17.94;98.49;101598.19;4978025;28;20416;-66
2022/07/31 06:50:36;;;;;;;0.05;0.05;;;;;;;17.79;96.65;101576.09;4973157;28;20442;-65
2022/07/31 06:53:01;;;;;;;0.00;0.00;;;;;;;17.92;98.48;101592.03;4978198;28;20057;-65
2022/07/31 06:55:27;;;;;;;0.00;0.00;;;;;;;18.04;98.34;101592.72;4976142;28;20035;-65
2022/07/31 06:57:52;;;;;;;0.00;0.00;;;;;;;18.18;95.61;101593.25;4977822;28;20031;-67
2022/07/31 07:00:19;;;;;;;0.00;0.00;;;;;;;18.00;96.94;101588.63;4974561;28;20125;-66
2022/07/31 07:02:44;;;;;;;0.00;0.00;;;;;;;18.21;96.23;101591.06;4975229;28;20034;-66
2022/07/31 07:05:09;;;;;;;0.00;0.00;;;;;;;18.20;95.78;101596.69;4973724;28;20059;-66
2022/07/31 07:07:35;;;;;;;0.00;0.00;;;;;;;18.11;96.42;101598.44;4976322;28;20487;-66
2022/07/31 07:10:00;;;;;;;0.00;0.00;;;;;;;18.21;95.64;101574.75;4977018;28;20040;-66
2022/07/31 07:12:26;;;;;;;0.00;0.00;;;;;;;18.42;96.75;101596.25;4979067;28;20026;-66
2022/07/31 07:14:51;;;;;;;0.00;0.00;;;;;;;18.69;95.20;101588.19;4979627;28;20041;-67
2022/07/31 07:17:16;;;;;;;0.00;0.00;;;;;;;18.61;95.68;101602.56;4985565;28;20457;-67
2022/07/31 07:19:42;;;;;;;0.00;0.00;;;;;;;18.57;93.36;101585.69;4978624;28;20462;-66
2022/07/31 07:22:07;;;;;;;0.00;0.00;;;;;;;18.53;92.96;101591.63;4972369;28;20461;-66
2022/07/31 07:24:32;;;;;;;0.00;0.00;;;;;;;18.59;93.24;101588.25;4976284;28;20022;-66
2022/07/31 07:26:58;;;;;;;0.00;0.00;;;;;;;18.47;95.04;101584.06;4976959;28;20118;-66
2022/07/31 07:29:23;;;;;;;0.00;0.00;;;;;;;18.39;94.56;101580.25;4974773;28;20054;-66
2022/07/31 07:31:48;;;;;;;0.00;0.00;;;;;;;18.41;95.05;101589.09;4974378;28;20038;-67
2022/07/31 07:34:14;;;;;;;0.00;0.00;;;;;;;18.55;93.77;101592.28;4977349;28;20018;-67
2022/07/31 07:36:39;;;;;;;0.00;0.00;;;;;;;18.69;94.16;101585.47;4979421;28;20037;-67
2022/07/31 07:39:04;;;;;;;0.00;0.00;;;;;;;18.62;94.01;101587.94;4979401;28;20031;-66
2022/07/31 07:41:30;;;;;;;0.00;0.00;;;;;;;18.77;94.60;101587.44;4976398;28;20076;-67
2022/07/31 07:43:55;;;;;;;0.00;0.00;;;;;;;18.57;93.67;101580.25;4976110;28;20057;-66
2022/07/31 07:46:22;;;;;;;0.00;0.00;;;;;;;18.74;93.46;101580.41;4980555;28;20038;-67
2022/07/31 07:48:49;;;;;;;0.00;0.00;;;;;;;18.67;93.64;101577.47;4976226;28;20026;-66
2022/07/31 07:51:14;;;;;;;0.00;0.00;;;;;;;18.70;93.92;101581.72;4979720;28;20026;-66
2022/07/31 07:53:40;;;;;;;0.00;0.00;;;;;;;18.97;92.91;101583.56;4976167;28;20065;-67
2022/07/31 07:56:05;;;;;;;0.00;0.00;;;;;;;18.83;93.83;101584.06;4974577;28;20034;-67
2022/07/31 07:58:30;;;;;;;0.00;0.00;;;;;;;18.99;93.27;101575.22;4974189;28;20034;-66
2022/07/31 08:00:56;;;;;;;0.00;0.00;;;;;;;19.16;93.37;101576.22;4977357;28;20165;-66
2022/07/31 08:03:21;;;;;;;0.00;0.00;;;;;;;19.32;93.40;101568.19;4975170;28;20260;-65
2022/07/31 08:05:46;;;;;;;0.00;0.00;;;;;;;19.28;92.30;101571.38;4973898;28;20109;-71
2022/07/31 08:08:12;;;;;;;0.00;0.00;;;;;;;19.27;92.48;101573.25;4980220;28;20093;-69
2022/07/31 08:10:38;;;;;;;0.00;0.00;;;;;;;19.32;93.21;101570.91;4982331;28;20374;-66
2022/07/31 08:13:04;;;;;;;0.00;0.00;;;;;;;19.28;90.25;101574.97;4976747;28;20538;-67
2022/07/31 08:15:29;;;;;;;0.00;0.00;;;;;;;19.48;90.82;101572.84;4976882;28;20030;-66
2022/07/31 08:17:55;;;;;;;0.00;0.00;;;;;;;19.42;91.83;101569.94;4978868;28;20038;-66
2022/07/31 08:20:20;;;;;;;0.00;0.00;;;;;;;19.42;91.89;101562.63;4976340;28;20518;-66
2022/07/31 08:22:45;;;;;;;0.00;0.00;;;;;;;19.75;89.60;101568.25;4978605;28;20632;-66
2022/07/31 08:25:11;;;;;;;0.00;0.00;;;;;;;19.67;89.49;101557.31;4982059;28;20034;-66
2022/07/31 08:27:36;;;;;;;0.00;0.00;;;;;;;19.63;90.79;101566.81;4982716;28;20068;-66
2022/07/31 08:30:02;;;;;;;0.00;0.00;;;;;;;19.81;89.73;101560.44;4977398;28;20118;-67
2022/07/31 08:32:27;;;;;;;0.00;0.00;;;;;;;19.93;88.18;101543.66;4981287;28;20149;-66
2022/07/31 08:34:53;;;;;;;0.00;0.00;;;;;;;20.18;87.93;101551.09;4980922;28;20030;-66
2022/07/31 08:37:19;;;;;;;0.00;0.00;;;;;;;19.95;88.33;101543.53;4981162;28;20092;-67
2022/07/31 08:39:46;;;;;;;0.00;0.00;;;;;;;20.15;88.92;101556.88;4982538;28;20457;-66
2022/07/31 08:42:12;;;;;;;0.00;0.00;;;;;;;19.99;89.86;101533.13;4983858;28;20034;-66
2022/07/31 08:44:39;;;;;;;0.00;0.00;;;;;;;20.30;88.64;101567.97;4983350;28;20026;-66
2022/07/31 08:47:06;;;;;;;0.00;0.00;;;;;;;20.33;87.93;101530.31;4987749;28;20027;-66
2022/07/31 08:49:32;;;;;;;0.00;0.00;;;;;;;20.55;87.37;101555.25;4982209;28;20050;-66
2022/07/31 08:51:59;;;;;;;0.00;0.00;;;;;;;21.03;85.68;101560.94;4964637;28;20034;-66
2022/07/31 08:54:25;;;;;;;0.00;0.00;;;;;;;20.70;87.33;101560.88;4985779;28;20034;-66
2022/07/31 08:56:51;;;;;;;0.00;0.00;;;;;;;20.55;87.10;101548.94;4983119;28;20045;-66
2022/07/31 08:59:18;;;;;;;0.00;0.00;;;;;;;20.37;86.97;101560.84;4975091;28;20448;-68
2022/07/31 09:01:44;;;;;;;0.00;0.00;;;;;;;20.39;87.03;101567.00;4979777;28;20367;-66
2022/07/31 09:04:09;;;;;;;0.00;0.00;;;;;;;20.31;87.36;101550.59;4983448;28;20037;-67
2022/07/31 09:06:35;;;;;;;0.00;0.00;;;;;;;20.63;87.26;101560.72;4977680;28;20062;-67
2022/07/31 09:09:01;;;;;;;0.00;0.00;;;;;;;20.65;86.86;101575.03;4980578;28;21472;-67
2022/07/31 09:11:26;;;;;;;0.00;0.00;;;;;;;20.59;86.61;101564.78;4980012;28;20030;-66
2022/07/31 09:14:00;;;;;;;0.00;0.00;;;;;;;20.88;86.04;101554.47;4980751;28;20138;-66
2022/07/31 09:16:25;;;;;;;0.00;0.00;;;;;;;21.23;85.40;101563.28;4986371;28;20645;-66
2022/07/31 09:18:55;;;;;;;0.00;0.00;;;;;;;21.18;85.22;101563.81;4984290;28;20129;-66
2022/07/31 09:21:21;;;;;;;0.00;0.00;;;;;;;20.88;85.41;101557.19;4981628;28;20053;-67
2022/07/31 09:23:47;;;;;;;0.00;0.00;;;;;;;20.51;86.88;101549.28;4979507;28;20520;-68
2022/07/31 09:26:12;;;;;;;0.00;0.00;;;;;;;20.66;85.65;101549.47;4984157;28;20041;-67
2022/07/31 09:28:43;;;;;;;0.00;0.00;;;;;;;20.63;85.59;101555.25;4982305;28;20026;-68
2022/07/31 09:31:10;;;;;;;0.00;0.00;;;;;;;20.66;86.79;101552.19;5002065;28;20394;-69
2022/07/31 09:33:37;;;;;;;0.00;0.00;;;;;;;20.91;86.00;101556.84;4979962;28;20027;-65
2022/07/31 09:36:03;;;;;;;0.00;0.00;;;;;;;20.60;87.55;101528.31;4979736;28;20033;-65
2022/07/31 09:38:37;;;;;;;0.00;0.00;;;;;;;20.75;88.27;101552.22;4962691;28;20034;-67
2022/07/31 09:41:16;;;;;;;0.00;0.00;;;;;;;20.67;88.75;101561.22;4973695;28;20026;-66
2022/07/31 09:43:42;;;;;;;0.00;0.00;;;;;;;20.76;87.64;101556.66;4978756;28;20038;-66
2022/07/31 09:46:09;;;;;;;0.00;0.00;;;;;;;20.82;90.22;101539.59;4975617;28;20035;-66
2022/07/31 09:48:35;;;;;;;0.00;0.00;;;;;;;21.02;90.03;101545.56;4981508;28;20069;-66
2022/07/31 09:51:03;;;;;;;0.00;0.00;;;;;;;20.96;88.12;101554.44;4986380;28;20029;-68
2022/07/31 09:53:45;;;;;;;0.00;0.00;;;;;;;21.00;87.74;101563.16;4980302;28;20034;-64
2022/07/31 09:56:11;;;;;;;0.00;0.00;;;;;;;21.01;87.38;101562.97;4987104;28;20030;-67
2022/07/31 09:58:39;;;;;;;0.00;0.00;;;;;;;21.17;89.15;101562.13;4982824;28;20033;-67
2022/07/31 10:01:06;;;;;;;0.00;0.00;;;;;;;21.07;87.28;101550.50;4974784;28;20067;-67
2022/07/31 10:03:32;;;;;;;0.00;0.00;;;;;;;21.30;87.44;101545.19;4981332;28;20022;-67
2022/07/31 10:05:57;;;;;;;0.00;0.00;;;;;;;21.61;90.55;101555.41;4982233;28;20029;-67
2022/07/31 10:08:23;;;;;;;0.00;0.00;;;;;;;21.80;88.43;101551.41;4981134;28;20027;-66
2022/07/31 10:10:49;;;;;;;0.00;0.00;;;;;;;21.92;87.02;101554.63;4979249;28;20042;-66
2022/07/31 10:13:18;;;;;;;0.00;0.00;;;;;;;21.90;88.21;101553.94;4979161;28;20030;-67
2022/07/31 10:15:46;;;;;;;0.00;0.00;;;;;;;21.45;84.61;101542.63;4975683;28;20088;-66
2022/07/31 10:18:11;;;;;;;0.00;0.00;;;;;;;21.53;86.72;101536.25;4979946;28;20101;-67
2022/07/31 10:20:38;;;;;;;0.00;0.00;;;;;;;21.61;86.21;101554.50;4979958;28;20194;-67
2022/07/31 10:23:15;;;;;;;0.00;0.00;;;;;;;21.57;85.75;101551.28;4980409;28;20060;-66
2022/07/31 10:25:44;;;;;;;0.00;0.00;;;;;;;21.60;85.57;101555.53;4975921;28;20124;-67
2022/07/31 10:28:10;;;;;;;0.00;0.00;;;;;;;21.43;84.94;101539.19;4978987;28;20490;-66
2022/07/31 10:30:35;;;;;;;0.00;0.00;;;;;;;21.57;83.48;101549.41;4978433;28;20042;-67
2022/07/31 10:33:04;;;;;;;0.00;0.00;;;;;;;21.72;83.45;101537.78;4984799;28;20662;-66
2022/07/31 10:35:30;;;;;;;0.00;0.00;;;;;;;21.58;83.38;101537.44;4978985;28;20034;-66
2022/07/31 10:38:12;;;;;;;0.00;0.00;;;;;;;21.82;83.74;101530.22;4980244;28;20108;-67
2022/07/31 10:40:51;;;;;;;0.00;0.00;;;;;;;21.99;83.64;101541.91;4982772;28;20031;-67
2022/07/31 10:43:28;;;;;;;0.00;0.00;;;;;;;21.97;85.18;101530.34;4978916;28;20027;-67
2022/07/31 10:45:54;;;;;;;0.00;0.00;;;;;;;22.43;83.16;101534.19;4977530;28;20023;-67
2022/07/31 10:48:21;;;;;;;0.00;0.00;;;;;;;22.09;79.66;101538.13;4979948;28;20026;-67
2022/07/31 10:50:47;;;;;;;0.00;0.00;;;;;;;22.25;80.81;101528.97;4983110;28;20038;-66
2022/07/31 10:53:15;;;;;;;0.00;0.00;;;;;;;22.28;81.48;101504.84;4986214;28;20088;-66
2022/07/31 10:55:40;;;;;;;0.00;0.00;;;;;;;22.67;79.97;101530.41;4988947;28;20034;-67
2022/07/31 10:58:15;;;;;;;0.00;0.00;;;;;;;22.77;79.64;101533.75;4987940;28;20065;-66
2022/07/31 11:00:41;;;;;;;0.00;0.00;;;;;;;22.86;77.94;101526.31;4985758;28;20026;-65
2022/07/31 11:03:13;;;;;;;0.00;0.00;;;;;;;22.75;77.35;101533.09;4981256;28;20045;-67
2022/07/31 11:05:39;;;;;;;0.00;0.00;;;;;;;22.79;79.29;101522.63;4985704;28;20018;-65
2022/07/31 11:08:06;;;;;;;0.00;0.00;;;;;;;22.57;79.68;101519.72;4984958;28;21667;-65
2022/07/31 11:10:32;;;;;;;0.00;0.00;;;;;;;22.53;78.87;101517.53;4985143;28;20030;-65
2022/07/31 11:13:06;;;;;;;0.00;0.00;;;;;;;22.51;79.33;101514.13;4977211;28;20019;-65
2022/07/31 11:15:32;;;;;;;0.00;0.00;;;;;;;22.77;78.07;101511.88;4979564;28;20031;-66
2022/07/31 11:17:57;;;;;;;0.00;0.00;;;;;;;22.76;76.90;101512.91;4985455;28;20033;-63
2022/07/31 11:20:30;;;;;;;0.00;0.00;;;;;;;22.87;76.61;101505.28;4983257;28;20034;-66
2022/07/31 11:23:00;;;;;;;0.00;0.00;;;;;;;22.86;77.38;101498.13;4981936;28;20030;-65
2022/07/31 11:25:28;;;;;;;0.10;0.00;;;;;;;22.97;76.55;101502.28;4982841;28;20754;-65